Kerveros — HPJR — position and weather

sailwx.info

Track history (hours):
 
Tides and Currents Weather Stations Pressure Air Temp Water Temp Dewpoint Dewpoint Depression Visibility Wind Speed Wind Dir Waves Ship Positions

Kerveros

Last reported at 2017-Nov-10 11:30 UTC. Time now 2017-Nov-24 05:50 UTC.
Position N 24°43' W 016°41'.
Warning: this ship's position is 13 days out of date.

Length 225 m; draft 7.8 m.

Type: Cargo ship. MMSI: 354327000.

Date/timePositionNaut miles runAvg speedWind from/ knotsBaromVisibWave heightAir tempDewpointWater temp
2017-Nov-10 11:30N 24°43' W 016°41'15712.0
2017-Nov-09 22:30N 26°51' W 015°01'912.0
2017-Nov-09 21:45N 26°57' W 014°53'2012.0
2017-Nov-09 20:03N 27°11' W 014°37'112.9
2017-Nov-09 20:00N 27°12' W 014°36'612.5
2017-Nov-09 19:30N 27°16' W 014°31'612.1
2017-Nov-09 19:00N 27°21' W 014°27'612.2
2017-Nov-09 18:29N 27°25' W 014°22'612.6
2017-Nov-09 18:00N 27°29' W 014°16'612.8
2017-Nov-09 17:30N 27°34' W 014°11'612.7
2017-Nov-09 17:00N 27°38' W 014°06'612.3
2017-Nov-09 16:31N 27°42' W 014°01'612.3
2017-Nov-09 16:00N 27°47' W 013°56'612.3
2017-Nov-09 15:31N 27°51' W 013°51'712.2
2017-Nov-09 14:58N 27°55' W 013°46'612.0
2017-Nov-09 14:30N 27°59' W 013°41'611.9
2017-Nov-09 13:59N 28°04' W 013°37'611.7
2017-Nov-09 13:31N 28°09' W 013°33'611.7
2017-Nov-09 13:01N 28°14' W 013°30'611.9
2017-Nov-09 12:30N 28°19' W 013°26'612.3
2017-Nov-09 12:01N 28°24' W 013°22'712.4
2017-Nov-09 11:27N 28°29' W 013°18'512.2
2017-Nov-09 11:01N 28°34' W 013°14'612.1
2017-Nov-09 10:30N 28°39' W 013°10'711.8
2017-Nov-09 09:57N 28°45' W 013°07'612.2
2017-Nov-09 09:30N 28°49' W 013°03'612.0
2017-Nov-09 09:00N 28°54' W 012°59'711.7
2017-Nov-09 08:24N 28°60' W 012°55'511.7
2017-Nov-09 08:00N 29°04' W 012°51'3712.2
2017-Nov-09 04:59N 29°35' W 012°28'612.4
2017-Nov-09 04:30N 29°39' W 012°24'612.4
2017-Nov-09 03:59N 29°45' W 012°20'712.8
2017-Nov-09 03:24N 29°51' W 012°15'812.8
2017-Nov-09 02:48N 29°57' W 012°10'612.5
2017-Nov-09 02:21N 30°02' W 012°07'412.5
2017-Nov-09 02:01N 30°05' W 012°04'1312.5
2017-Nov-09 00:57N 30°17' W 011°56'612.6
2017-Nov-09 00:30N 30°21' W 011°52'712.8
2017-Nov-08 23:55N 30°27' W 011°47'813.0
2017-Nov-08 23:20N 30°34' W 011°42'813.1
2017-Nov-08 22:43N 30°40' W 011°37'313.0
2017-Nov-08 22:29N 30°43' W 011°35'613.1
2017-Nov-08 22:00N 30°48' W 011°31'613.1
2017-Nov-08 21:31N 30°54' W 011°27'713.1
2017-Nov-08 20:57N 30°60' W 011°22'613.3
2017-Nov-08 20:30N 31°05' W 011°18'2513.6
2017-Nov-08 18:42N 31°25' W 011°02'313.6
2017-Nov-08 18:30N 31°27' W 010°60'713.3
2017-Nov-08 18:01N 31°32' W 010°55'713.2
2017-Nov-08 17:27N 31°38' W 010°50'612.9
2017-Nov-08 16:59N 31°43' W 010°46'1012.5
2017-Nov-08 16:13N 31°51' W 010°40'1112.7
2017-Nov-08 15:22N 32°00' W 010°33'28612.4
2017-Nov-07 16:14N 35°37' W 006°48'312.2
2017-Nov-07 16:00N 35°39' W 006°46'3212.4
2017-Nov-07 13:23N 35°57' W 006°12'512.8
2017-Nov-07 12:59N 35°57' W 006°06'612.9
2017-Nov-07 12:30N 35°57' W 005°58'613.0
2017-Nov-07 12:00N 35°57' W 005°50'713.6
2017-Nov-07 11:30N 35°57' W 005°42'611.6
2017-Nov-07 11:01N 35°58' W 005°35'510.0
2017-Nov-07 10:30N 35°59' W 005°29'4 9.0
2017-Nov-07 10:01N 36°02' W 005°24'510.0
2017-Nov-07 09:30N 36°07' W 005°23'2 2.6
2017-Nov-07 08:50N 36°09' W 005°23'0 0.1
2017-Nov-07 08:20N 36°09' W 005°23'  
2017-Nov-04 09:59N 37°28' E 007°07'611.8
2017-Nov-04 09:30N 37°29' E 007°14'1612.0
2017-Nov-04 08:08N 37°32' E 007°35'212.2
2017-Nov-04 08:00N 37°32' E 007°37'612.2
2017-Nov-04 07:30N 37°33' E 007°44'712.3
2017-Nov-04 06:56N 37°33' E 007°53'612.3
2017-Nov-04 06:25N 37°34' E 008°01'8011.6
2017-Nov-03 23:33N 37°40' E 009°42'8811.4
2017-Nov-03 15:50N 37°20' E 011°29'10811.7
2017-Nov-03 06:35N 36°37' E 013°33'111.7
2017-Nov-03 06:30N 36°36' E 013°34'611.7
2017-Nov-03 05:59N 36°34' E 013°41'611.7
2017-Nov-03 05:30N 36°32' E 013°48'611.8
2017-Nov-03 05:00N 36°30' E 013°55'611.7
2017-Nov-03 04:30N 36°28' E 014°02'611.6
2017-Nov-03 04:00N 36°26' E 014°08'611.5
2017-Nov-03 03:30N 36°25' E 014°16'611.4
2017-Nov-03 03:00N 36°24' E 014°23'611.6
2017-Nov-03 02:30N 36°24' E 014°30'611.6
2017-Nov-03 02:00N 36°24' E 014°37'612.0
2017-Nov-03 01:30N 36°23' E 014°44'612.0
2017-Nov-03 00:59N 36°23' E 014°52'  
Track history (hours):
 
Tides and Currents Weather Stations Pressure Air Temp Water Temp Dewpoint Dewpoint Depression Visibility Wind Speed Wind Dir Waves Ship Positions

Kerveros

Last reported at 2017-Nov-10 11:30 UTC. Time now 2017-Nov-24 05:50 UTC.
Position N 24°43' W 016°41'.
Warning: this ship's position is 13 days out of date.

Length 225 m; draft 7.8 m.

Type: Cargo ship. MMSI: 354327000.

Date/timePositionNaut miles runAvg speedWind from/ knotsBaromVisibWave heightAir tempDewpointWater temp
2017-Nov-10 11:30N 24°43' W 016°41'15712.0
2017-Nov-09 22:30N 26°51' W 015°01'912.0
2017-Nov-09 21:45N 26°57' W 014°53'2012.0
2017-Nov-09 20:03N 27°11' W 014°37'112.9
2017-Nov-09 20:00N 27°12' W 014°36'612.5
2017-Nov-09 19:30N 27°16' W 014°31'612.1
2017-Nov-09 19:00N 27°21' W 014°27'612.2
2017-Nov-09 18:29N 27°25' W 014°22'612.6
2017-Nov-09 18:00N 27°29' W 014°16'612.8
2017-Nov-09 17:30N 27°34' W 014°11'612.7
2017-Nov-09 17:00N 27°38' W 014°06'612.3
2017-Nov-09 16:31N 27°42' W 014°01'612.3
2017-Nov-09 16:00N 27°47' W 013°56'612.3
2017-Nov-09 15:31N 27°51' W 013°51'712.2
2017-Nov-09 14:58N 27°55' W 013°46'612.0
2017-Nov-09 14:30N 27°59' W 013°41'611.9
2017-Nov-09 13:59N 28°04' W 013°37'611.7
2017-Nov-09 13:31N 28°09' W 013°33'611.7
2017-Nov-09 13:01N 28°14' W 013°30'611.9
2017-Nov-09 12:30N 28°19' W 013°26'612.3
2017-Nov-09 12:01N 28°24' W 013°22'712.4
2017-Nov-09 11:27N 28°29' W 013°18'512.2
2017-Nov-09 11:01N 28°34' W 013°14'612.1
2017-Nov-09 10:30N 28°39' W 013°10'711.8
2017-Nov-09 09:57N 28°45' W 013°07'612.2
2017-Nov-09 09:30N 28°49' W 013°03'612.0
2017-Nov-09 09:00N 28°54' W 012°59'711.7
2017-Nov-09 08:24N 28°60' W 012°55'511.7
2017-Nov-09 08:00N 29°04' W 012°51'3712.2
2017-Nov-09 04:59N 29°35' W 012°28'612.4
2017-Nov-09 04:30N 29°39' W 012°24'612.4
2017-Nov-09 03:59N 29°45' W 012°20'712.8
2017-Nov-09 03:24N 29°51' W 012°15'812.8
2017-Nov-09 02:48N 29°57' W 012°10'612.5
2017-Nov-09 02:21N 30°02' W 012°07'412.5
2017-Nov-09 02:01N 30°05' W 012°04'1312.5
2017-Nov-09 00:57N 30°17' W 011°56'612.6
2017-Nov-09 00:30N 30°21' W 011°52'712.8
2017-Nov-08 23:55N 30°27' W 011°47'813.0
2017-Nov-08 23:20N 30°34' W 011°42'813.1
2017-Nov-08 22:43N 30°40' W 011°37'313.0
2017-Nov-08 22:29N 30°43' W 011°35'613.1
2017-Nov-08 22:00N 30°48' W 011°31'613.1
2017-Nov-08 21:31N 30°54' W 011°27'713.1
2017-Nov-08 20:57N 30°60' W 011°22'613.3
2017-Nov-08 20:30N 31°05' W 011°18'2513.6
2017-Nov-08 18:42N 31°25' W 011°02'313.6
2017-Nov-08 18:30N 31°27' W 010°60'713.3
2017-Nov-08 18:01N 31°32' W 010°55'713.2
2017-Nov-08 17:27N 31°38' W 010°50'612.9
2017-Nov-08 16:59N 31°43' W 010°46'1012.5
2017-Nov-08 16:13N 31°51' W 010°40'1112.7
2017-Nov-08 15:22N 32°00' W 010°33'28612.4
2017-Nov-07 16:14N 35°37' W 006°48'312.2
2017-Nov-07 16:00N 35°39' W 006°46'3212.4
2017-Nov-07 13:23N 35°57' W 006°12'512.8
2017-Nov-07 12:59N 35°57' W 006°06'612.9
2017-Nov-07 12:30N 35°57' W 005°58'613.0
2017-Nov-07 12:00N 35°57' W 005°50'713.6
2017-Nov-07 11:30N 35°57' W 005°42'611.6
2017-Nov-07 11:01N 35°58' W 005°35'510.0
2017-Nov-07 10:30N 35°59' W 005°29'4 9.0
2017-Nov-07 10:01N 36°02' W 005°24'510.0
2017-Nov-07 09:30N 36°07' W 005°23'2 2.6
2017-Nov-07 08:50N 36°09' W 005°23'0 0.1
2017-Nov-07 08:20N 36°09' W 005°23'  
2017-Nov-04 09:59N 37°28' E 007°07'611.8
2017-Nov-04 09:30N 37°29' E 007°14'1612.0
2017-Nov-04 08:08N 37°32' E 007°35'212.2
2017-Nov-04 08:00N 37°32' E 007°37'612.2
2017-Nov-04 07:30N 37°33' E 007°44'712.3
2017-Nov-04 06:56N 37°33' E 007°53'612.3
2017-Nov-04 06:25N 37°34' E 008°01'8011.6
2017-Nov-03 23:33N 37°40' E 009°42'8811.4
2017-Nov-03 15:50N 37°20' E 011°29'10811.7
2017-Nov-03 06:35N 36°37' E 013°33'111.7
2017-Nov-03 06:30N 36°36' E 013°34'611.7
2017-Nov-03 05:59N 36°34' E 013°41'611.7
2017-Nov-03 05:30N 36°32' E 013°48'611.8
2017-Nov-03 05:00N 36°30' E 013°55'611.7
2017-Nov-03 04:30N 36°28' E 014°02'611.6
2017-Nov-03 04:00N 36°26' E 014°08'611.5
2017-Nov-03 03:30N 36°25' E 014°16'611.4
2017-Nov-03 03:00N 36°24' E 014°23'611.6
2017-Nov-03 02:30N 36°24' E 014°30'611.6
2017-Nov-03 02:00N 36°24' E 014°37'612.0
2017-Nov-03 01:30N 36°23' E 014°44'612.0
2017-Nov-03 00:59N 36°23' E 014°52'  

Dump ship's entire track history